sensor_id;sensor_type;location;lat;lon;timestamp;pressure;altitude;pressure_sealevel;temperature;humidity
71996;BME280;59862;47.732;7.346;2022-08-19T00:00:39;97755.58;;;17.75;93.22
71996;BME280;59862;47.732;7.346;2022-08-19T00:03:07;97751.01;;;17.73;93.21
71996;BME280;59862;47.732;7.346;2022-08-19T00:05:34;97753.20;;;17.70;93.04
71996;BME280;59862;47.732;7.346;2022-08-19T00:08:03;97741.66;;;17.64;93.05
71996;BME280;59862;47.732;7.346;2022-08-19T00:10:30;97745.83;;;17.64;93.18
71996;BME280;59862;47.732;7.346;2022-08-19T00:12:58;97743.45;;;17.59;93.37
71996;BME280;59862;47.732;7.346;2022-08-19T00:15:25;97740.67;;;17.59;93.38
71996;BME280;59862;47.732;7.346;2022-08-19T00:17:54;97742.26;;;17.60;93.31
71996;BME280;59862;47.732;7.346;2022-08-19T00:20:22;97749.41;;;17.61;93.46
71996;BME280;59862;47.732;7.346;2022-08-19T00:22:50;97752.58;;;17.63;93.18
71996;BME280;59862;47.732;7.346;2022-08-19T00:25:18;97754.97;;;17.58;93.19
71996;BME280;59862;47.732;7.346;2022-08-19T00:27:45;97748.79;;;17.55;93.23
71996;BME280;59862;47.732;7.346;2022-08-19T00:30:13;97746.61;;;17.54;93.29
71996;BME280;59862;47.732;7.346;2022-08-19T00:32:41;97746.61;;;17.54;93.30
71996;BME280;59862;47.732;7.346;2022-08-19T00:35:09;97753.36;;;17.53;93.28
71996;BME280;59862;47.732;7.346;2022-08-19T00:37:37;97751.38;;;17.54;93.21
71996;BME280;59862;47.732;7.346;2022-08-19T00:40:06;97750.78;;;17.51;93.16
71996;BME280;59862;47.732;7.346;2022-08-19T00:42:34;97752.57;;;17.46;93.33
71996;BME280;59862;47.732;7.346;2022-08-19T00:45:03;97754.56;;;17.45;93.48
71996;BME280;59862;47.732;7.346;2022-08-19T00:47:31;97750.59;;;17.46;93.41
71996;BME280;59862;47.732;7.346;2022-08-19T00:50:00;97748.60;;;17.43;93.44
71996;BME280;59862;47.732;7.346;2022-08-19T00:52:33;97741.05;;;17.43;93.33
71996;BME280;59862;47.732;7.346;2022-08-19T00:55:02;97750.59;;;17.42;93.42
71996;BME280;59862;47.732;7.346;2022-08-19T00:57:33;97733.11;;;17.42;93.48
71996;BME280;59862;47.732;7.346;2022-08-19T01:00:04;97740.86;;;17.42;93.60
71996;BME280;59862;47.732;7.346;2022-08-19T01:02:32;97746.61;;;17.43;93.71
71996;BME280;59862;47.732;7.346;2022-08-19T01:05:03;97744.03;;;17.48;93.68
71996;BME280;59862;47.732;7.346;2022-08-19T01:07:30;97741.05;;;17.47;93.59
71996;BME280;59862;47.732;7.346;2022-08-19T01:09:58;97739.86;;;17.44;93.53
71996;BME280;59862;47.732;7.346;2022-08-19T01:12:26;97735.70;;;17.44;93.60
71996;BME280;59862;47.732;7.346;2022-08-19T01:14:54;97740.27;;;17.39;93.73
71996;BME280;59862;47.732;7.346;2022-08-19T01:17:22;97738.48;;;17.37;93.80
71996;BME280;59862;47.732;7.346;2022-08-19T01:19:50;97732.92;;;17.34;93.81
71996;BME280;59862;47.732;7.346;2022-08-19T01:24:52;97725.98;;;17.30;94.03
71996;BME280;59862;47.732;7.346;2022-08-19T01:27:19;97721.41;;;17.28;94.12
71996;BME280;59862;47.732;7.346;2022-08-19T01:29:47;97719.42;;;17.25;94.25
71996;BME280;59862;47.732;7.346;2022-08-19T01:32:16;97709.70;;;17.25;94.27
71996;BME280;59862;47.732;7.346;2022-08-19T01:34:45;97708.52;;;17.23;94.34
71996;BME280;59862;47.732;7.346;2022-08-19T01:37:14;97713.27;;;17.22;94.45
71996;BME280;59862;47.732;7.346;2022-08-19T01:39:42;97710.50;;;17.19;94.54
71996;BME280;59862;47.732;7.346;2022-08-19T01:42:09;97714.66;;;17.19;94.65
71996;BME280;59862;47.732;7.346;2022-08-19T01:44:40;97710.50;;;17.19;94.65
71996;BME280;59862;47.732;7.346;2022-08-19T01:47:08;97716.45;;;17.21;94.63
71996;BME280;59862;47.732;7.346;2022-08-19T01:49:37;97716.05;;;17.19;94.69
71996;BME280;59862;47.732;7.346;2022-08-19T01:52:05;97710.50;;;17.19;94.74
71996;BME280;59862;47.732;7.346;2022-08-19T01:54:33;97700.58;;;17.18;94.78
71996;BME280;59862;47.732;7.346;2022-08-19T01:57:06;97698.98;;;17.24;94.89
71996;BME280;59862;47.732;7.346;2022-08-19T01:59:34;97694.41;;;17.25;94.82
71996;BME280;59862;47.732;7.346;2022-08-19T02:02:04;97699.37;;;17.22;94.69
71996;BME280;59862;47.732;7.346;2022-08-19T02:04:34;97697.59;;;17.24;94.76
71996;BME280;59862;47.732;7.346;2022-08-19T02:07:04;97698.98;;;17.24;94.73
71996;BME280;59862;47.732;7.346;2022-08-19T02:09:34;97701.96;;;17.21;94.63
71996;BME280;59862;47.732;7.346;2022-08-19T02:12:02;97705.53;;;17.22;94.69
71996;BME280;59862;47.732;7.346;2022-08-19T02:14:29;97721.22;;;17.24;94.73
71996;BME280;59862;47.732;7.346;2022-08-19T02:16:57;97713.27;;;17.26;94.62
71996;BME280;59862;47.732;7.346;2022-08-19T02:19:24;97713.07;;;17.28;94.61
71996;BME280;59862;47.732;7.346;2022-08-19T02:21:52;97707.52;;;17.25;94.47
71996;BME280;59862;47.732;7.346;2022-08-19T02:24:19;97711.48;;;17.24;94.54
71996;BME280;59862;47.732;7.346;2022-08-19T02:26:46;97711.09;;;17.22;94.50
71996;BME280;59862;47.732;7.346;2022-08-19T02:29:14;97708.31;;;17.22;94.42
71996;BME280;59862;47.732;7.346;2022-08-19T02:31:41;97708.31;;;17.22;94.23
71996;BME280;59862;47.732;7.346;2022-08-19T02:34:09;97710.09;;;17.24;94.15
71996;BME280;59862;47.732;7.346;2022-08-19T02:36:36;97712.88;;;17.20;93.94
71996;BME280;59862;47.732;7.346;2022-08-19T02:39:04;97717.25;;;17.18;93.95
71996;BME280;59862;47.732;7.346;2022-08-19T02:41:33;97711.09;;;17.15;93.89
71996;BME280;59862;47.732;7.346;2022-08-19T02:44:03;97713.87;;;17.18;93.90
71996;BME280;59862;47.732;7.346;2022-08-19T02:46:32;97709.11;;;17.19;93.96
71996;BME280;59862;47.732;7.346;2022-08-19T02:49:03;97706.92;;;17.18;94.00
71996;BME280;59862;47.732;7.346;2022-08-19T02:51:38;97714.86;;;17.20;94.03
71996;BME280;59862;47.732;7.346;2022-08-19T02:54:02;97702.16;;;17.22;94.15
71996;BME280;59862;47.732;7.346;2022-08-19T02:56:30;97703.74;;;17.27;94.24
71996;BME280;59862;47.732;7.346;2022-08-19T02:58:58;97707.91;;;17.23;94.13
71996;BME280;59862;47.732;7.346;2022-08-19T03:01:32;97707.12;;;17.26;94.07
71996;BME280;59862;47.732;7.346;2022-08-19T03:03:58;97708.31;;;17.22;94.00
71996;BME280;59862;47.732;7.346;2022-08-19T03:06:27;97721.22;;;17.20;93.99
71996;BME280;59862;47.732;7.346;2022-08-19T03:08:55;97725.19;;;17.19;93.97
71996;BME280;59862;47.732;7.346;2022-08-19T03:11:26;97725.19;;;17.19;93.85
71996;BME280;59862;47.732;7.346;2022-08-19T03:13:54;97730.74;;;17.16;93.74
71996;BME280;59862;47.732;7.346;2022-08-19T03:16:25;97736.10;;;17.18;93.83
71996;BME280;59862;47.732;7.346;2022-08-19T03:18:53;97725.19;;;17.16;93.75
71996;BME280;59862;47.732;7.346;2022-08-19T03:21:23;97727.97;;;17.16;93.67
71996;BME280;59862;47.732;7.346;2022-08-19T03:23:57;97732.13;;;17.16;93.66
71996;BME280;59862;47.732;7.346;2022-08-19T03:26:27;97727.77;;;17.18;93.57
71996;BME280;59862;47.732;7.346;2022-08-19T03:28:55;97724.19;;;17.18;93.43
71996;BME280;59862;47.732;7.346;2022-08-19T03:31:24;97729.95;;;17.15;93.44
71996;BME280;59862;47.732;7.346;2022-08-19T03:33:52;97727.17;;;17.19;93.54
71996;BME280;59862;47.732;7.346;2022-08-19T03:36:22;97733.92;;;17.18;93.39
71996;BME280;59862;47.732;7.346;2022-08-19T03:38:52;97736.30;;;17.16;93.35
71996;BME280;59862;47.732;7.346;2022-08-19T03:41:24;97735.31;;;17.18;93.38
71996;BME280;59862;47.732;7.346;2022-08-19T03:43:52;97735.11;;;17.17;93.45
71996;BME280;59862;47.732;7.346;2022-08-19T03:46:24;97739.28;;;17.17;93.41
71996;BME280;59862;47.732;7.346;2022-08-19T03:48:54;97740.07;;;17.14;93.41
71996;BME280;59862;47.732;7.346;2022-08-19T03:51:30;97743.45;;;17.13;93.43
71996;BME280;59862;47.732;7.346;2022-08-19T03:53:54;97743.25;;;17.12;93.43
71996;BME280;59862;47.732;7.346;2022-08-19T03:56:22;97743.25;;;17.12;93.44
71996;BME280;59862;47.732;7.346;2022-08-19T03:58:53;97745.43;;;17.13;93.29
71996;BME280;59862;47.732;7.346;2022-08-19T04:01:22;97734.71;;;17.11;93.39
71996;BME280;59862;47.732;7.346;2022-08-19T04:03:53;97726.58;;;17.12;93.35
71996;BME280;59862;47.732;7.346;2022-08-19T04:06:24;97729.75;;;17.10;93.40
71996;BME280;59862;47.732;7.346;2022-08-19T04:08:53;97728.95;;;17.10;93.51
71996;BME280;59862;47.732;7.346;2022-08-19T04:11:24;97732.92;;;17.13;93.47
71996;BME280;59862;47.732;7.346;2022-08-19T04:13:52;97731.94;;;17.11;93.42
71996;BME280;59862;47.732;7.346;2022-08-19T04:16:24;97733.12;;;17.14;93.54
71996;BME280;59862;47.732;7.346;2022-08-19T04:18:51;97739.67;;;17.11;93.53
71996;BME280;59862;47.732;7.346;2022-08-19T04:21:20;97731.14;;;17.10;93.52
71996;BME280;59862;47.732;7.346;2022-08-19T04:23:48;97746.81;;;17.13;93.54
71996;BME280;59862;47.732;7.346;2022-08-19T04:26:19;97736.10;;;17.15;93.63
71996;BME280;59862;47.732;7.346;2022-08-19T04:28:47;97746.63;;;17.15;93.65
71996;BME280;59862;47.732;7.346;2022-08-19T04:31:18;97746.03;;;17.16;93.65
71996;BME280;59862;47.732;7.346;2022-08-19T04:33:45;97758.53;;;17.16;93.65
71996;BME280;59862;47.732;7.346;2022-08-19T04:36:18;97761.11;;;17.18;93.74
71996;BME280;59862;47.732;7.346;2022-08-19T04:38:48;97761.11;;;17.22;93.76
71996;BME280;59862;47.732;7.346;2022-08-19T04:41:16;97763.89;;;17.22;93.65
71996;BME280;59862;47.732;7.346;2022-08-19T04:44:01;97757.73;;;17.22;93.65
71996;BME280;59862;47.732;7.346;2022-08-19T04:46:29;97749.80;;;17.21;93.71
71996;BME280;59862;47.732;7.346;2022-08-19T04:48:59;97761.11;;;17.22;93.73
71996;BME280;59862;47.732;7.346;2022-08-19T04:51:27;97749.59;;;17.20;93.75
71996;BME280;59862;47.732;7.346;2022-08-19T04:53:57;97756.95;;;17.22;93.88
71996;BME280;59862;47.732;7.346;2022-08-19T04:56:27;97764.69;;;17.22;93.94
71996;BME280;59862;47.732;7.346;2022-08-19T04:58:56;97769.25;;;17.24;94.03
71996;BME280;59862;47.732;7.346;2022-08-19T05:01:26;97775.80;;;17.26;93.97
71996;BME280;59862;47.732;7.346;2022-08-19T05:03:57;97770.45;;;17.34;94.06
71996;BME280;59862;47.732;7.346;2022-08-19T05:06:24;97773.63;;;17.32;93.93
71996;BME280;59862;47.732;7.346;2022-08-19T05:08:52;97778.19;;;17.34;93.99
71996;BME280;59862;47.732;7.346;2022-08-19T05:11:29;97778.98;;;17.35;94.00
71996;BME280;59862;47.732;7.346;2022-08-19T05:13:57;97778.39;;;17.39;94.09
71996;BME280;59862;47.732;7.346;2022-08-19T05:16:26;97778.39;;;17.39;94.03
71996;BME280;59862;47.732;7.346;2022-08-19T05:18:55;97785.14;;;17.41;94.01
71996;BME280;59862;47.732;7.346;2022-08-19T05:21:42;97787.72;;;17.44;94.04
71996;BME280;59862;47.732;7.346;2022-08-19T05:24:27;97785.53;;;17.47;93.93
71996;BME280;59862;47.732;7.346;2022-08-19T05:26:56;97788.31;;;17.51;93.93
71996;BME280;59862;47.732;7.346;2022-08-19T05:29:26;97795.86;;;17.50;93.97
71996;BME280;59862;47.732;7.346;2022-08-19T05:31:55;97800.03;;;17.54;93.93
71996;BME280;59862;47.732;7.346;2022-08-19T05:34:24;97803.61;;;17.54;94.04
71996;BME280;59862;47.732;7.346;2022-08-19T05:36:57;97806.22;;;17.57;93.94
71996;BME280;59862;47.732;7.346;2022-08-19T05:39:28;97813.34;;;17.54;93.98
71996;BME280;59862;47.732;7.346;2022-08-19T05:41:58;97811.95;;;17.54;93.99
71996;BME280;59862;47.732;7.346;2022-08-19T05:44:29;97806.19;;;17.53;94.06
71996;BME280;59862;47.732;7.346;2022-08-19T05:46:59;97808.41;;;17.57;94.15
71996;BME280;59862;47.732;7.346;2022-08-19T05:49:28;97822.91;;;17.60;94.22
71996;BME280;59862;47.732;7.346;2022-08-19T05:51:56;97822.11;;;17.63;94.21
71996;BME280;59862;47.732;7.346;2022-08-19T05:54:26;97823.13;;;17.68;94.25
71996;BME280;59862;47.732;7.346;2022-08-19T05:56:54;97829.28;;;17.71;94.20
71996;BME280;59862;47.732;7.346;2022-08-19T05:59:22;97831.27;;;17.74;94.10
71996;BME280;59862;47.732;7.346;2022-08-19T06:01:53;97833.45;;;17.75;94.02
71996;BME280;59862;47.732;7.346;2022-08-19T06:04:22;97841.20;;;17.76;93.98
71996;BME280;59862;47.732;7.346;2022-08-19T06:06:51;97836.44;;;17.72;93.99
71996;BME280;59862;47.732;7.346;2022-08-19T06:09:20;97836.63;;;17.73;94.11
71996;BME280;59862;47.732;7.346;2022-08-19T06:11:54;97838.02;;;17.77;94.14
71996;BME280;59862;47.732;7.346;2022-08-19T06:14:29;97838.02;;;17.77;94.06
71996;BME280;59862;47.732;7.346;2022-08-19T06:16:57;97845.77;;;17.78;94.08
71996;BME280;59862;47.732;7.346;2022-08-19T06:19:29;97848.35;;;17.80;94.08
71996;BME280;59862;47.732;7.346;2022-08-19T06:21:58;97847.36;;;17.82;94.04
71996;BME280;59862;47.732;7.346;2022-08-19T06:24:28;97847.55;;;17.87;93.87
71996;BME280;59862;47.732;7.346;2022-08-19T06:26:57;97852.92;;;17.89;93.86
71996;BME280;59862;47.732;7.346;2022-08-19T06:29:27;97858.07;;;18.01;93.85
71996;BME280;59862;47.732;7.346;2022-08-19T06:31:58;97857.87;;;18.04;93.55
71996;BME280;59862;47.732;7.346;2022-08-19T06:34:28;97856.48;;;18.04;93.41
71996;BME280;59862;47.732;7.346;2022-08-19T06:36:57;97857.07;;;18.07;93.33
71996;BME280;59862;47.732;7.346;2022-08-19T06:39:30;97856.27;;;18.10;93.20
71996;BME280;59862;47.732;7.346;2022-08-19T06:42:00;97858.05;;;18.16;93.19
71996;BME280;59862;47.732;7.346;2022-08-19T06:44:29;97857.66;;;18.24;93.08
71996;BME280;59862;47.732;7.346;2022-08-19T06:47:00;97855.67;;;18.25;92.77
71996;BME280;59862;47.732;7.346;2022-08-19T06:49:28;97855.86;;;18.29;92.58
71996;BME280;59862;47.732;7.346;2022-08-19T06:51:58;97857.42;;;18.41;92.56
71996;BME280;59862;47.732;7.346;2022-08-19T06:54:27;97853.02;;;18.51;92.09
71996;BME280;59862;47.732;7.346;2022-08-19T06:56:58;97862.55;;;18.64;92.14
71996;BME280;59862;47.732;7.346;2022-08-19T06:59:28;97866.30;;;18.73;91.25
71996;BME280;59862;47.732;7.346;2022-08-19T07:01:58;97870.47;;;18.73;90.83
71996;BME280;59862;47.732;7.346;2022-08-19T07:04:29;97871.05;;;18.79;90.69
71996;BME280;59862;47.732;7.346;2022-08-19T07:07:07;97862.69;;;18.79;90.08
71996;BME280;59862;47.732;7.346;2022-08-19T07:09:37;97873.81;;;18.90;89.89
71996;BME280;59862;47.732;7.346;2022-08-19T07:12:07;97881.73;;;18.98;89.92
71996;BME280;59862;47.732;7.346;2022-08-19T07:14:36;97881.10;;;19.06;89.30
71996;BME280;59862;47.732;7.346;2022-08-19T07:17:07;97879.86;;;19.14;89.01
71996;BME280;59862;47.732;7.346;2022-08-19T07:19:36;97887.18;;;19.23;88.65
71996;BME280;59862;47.732;7.346;2022-08-19T07:22:07;97883.17;;;19.28;88.43
71996;BME280;59862;47.732;7.346;2022-08-19T07:24:36;97883.53;;;19.33;87.95
71996;BME280;59862;47.732;7.346;2022-08-19T07:27:05;97888.15;;;19.28;88.02
71996;BME280;59862;47.732;7.346;2022-08-19T07:29:35;97882.37;;;19.27;87.98
71996;BME280;59862;47.732;7.346;2022-08-19T07:32:04;97888.90;;;19.36;88.22
71996;BME280;59862;47.732;7.346;2022-08-19T07:34:33;97891.50;;;19.35;87.95
71996;BME280;59862;47.732;7.346;2022-08-19T07:37:02;97889.89;;;19.38;87.48
71996;BME280;59862;47.732;7.346;2022-08-19T07:39:32;97893.86;;;19.40;87.41
71996;BME280;59862;47.732;7.346;2022-08-19T07:42:03;97893.44;;;19.52;87.26
71996;BME280;59862;47.732;7.346;2022-08-19T07:44:30;97888.61;;;19.60;86.80
71996;BME280;59862;47.732;7.346;2022-08-19T07:46:57;97890.41;;;19.58;86.88
71996;BME280;59862;47.732;7.346;2022-08-19T07:49:27;97895.75;;;19.65;86.29
71996;BME280;59862;47.732;7.346;2022-08-19T07:52:02;97901.48;;;19.69;86.56
71996;BME280;59862;47.732;7.346;2022-08-19T07:54:29;97897.47;;;19.74;86.40
71996;BME280;59862;47.732;7.346;2022-08-19T07:56:57;97894.27;;;19.75;86.41
71996;BME280;59862;47.732;7.346;2022-08-19T07:59:25;97892.69;;;19.74;85.99
71996;BME280;59862;47.732;7.346;2022-08-19T08:01:56;97899.88;;;19.72;86.00
71996;BME280;59862;47.732;7.346;2022-08-19T08:04:26;97896.05;;;19.77;85.95
71996;BME280;59862;47.732;7.346;2022-08-19T08:07:11;97903.16;;;19.85;86.13
71996;BME280;59862;47.732;7.346;2022-08-19T08:09:57;97907.21;;;19.77;86.06
71996;BME280;59862;47.732;7.346;2022-08-19T08:12:28;97899.84;;;19.75;86.41
71996;BME280;59862;47.732;7.346;2022-08-19T08:15:03;97915.99;;;19.76;86.41
71996;BME280;59862;47.732;7.346;2022-08-19T08:17:31;97912.52;;;19.87;86.42
71996;BME280;59862;47.732;7.346;2022-08-19T08:19:59;97910.27;;;19.93;85.94
71996;BME280;59862;47.732;7.346;2022-08-19T08:22:27;97916.27;;;19.92;85.06
71996;BME280;59862;47.732;7.346;2022-08-19T08:25:15;97917.22;;;19.97;85.01
71996;BME280;59862;47.732;7.346;2022-08-19T08:27:45;97919.95;;;20.04;85.37
71996;BME280;59862;47.732;7.346;2022-08-19T08:30:23;97930.23;;;20.18;85.38
71996;BME280;59862;47.732;7.346;2022-08-19T08:32:46;97938.23;;;20.12;84.29
71996;BME280;59862;47.732;7.346;2022-08-19T08:35:16;97933.60;;;20.21;84.65
71996;BME280;59862;47.732;7.346;2022-08-19T08:37:46;97937.31;;;20.30;83.76
71996;BME280;59862;47.732;7.346;2022-08-19T08:40:33;97933.38;;;20.23;84.29
71996;BME280;59862;47.732;7.346;2022-08-19T08:43:11;97945.85;;;20.34;84.05
71996;BME280;59862;47.732;7.346;2022-08-19T08:45:44;97947.41;;;20.61;83.90
71996;BME280;59862;47.732;7.346;2022-08-19T08:48:24;97950.58;;;20.85;82.55
71996;BME280;59862;47.732;7.346;2022-08-19T08:50:43;97949.18;;;20.85;81.33
71996;BME280;59862;47.732;7.346;2022-08-19T08:53:14;97945.99;;;21.02;81.57
71996;BME280;59862;47.732;7.346;2022-08-19T08:55:42;97948.55;;;21.24;80.80
71996;BME280;59862;47.732;7.346;2022-08-19T08:58:20;97950.85;;;21.63;79.90
71996;BME280;59862;47.732;7.346;2022-08-19T09:00:49;97953.89;;;21.87;77.98
71996;BME280;59862;47.732;7.346;2022-08-19T09:03:23;97950.88;;;21.74;77.56
71996;BME280;59862;47.732;7.346;2022-08-19T09:05:57;97958.27;;;22.03;76.93
71996;BME280;59862;47.732;7.346;2022-08-19T09:16:52;97974.34;;;20.85;79.61
71996;BME280;59862;47.732;7.346;2022-08-19T09:19:20;97978.53;;;20.85;79.93
71996;BME280;59862;47.732;7.346;2022-08-19T09:21:47;97976.86;;;20.92;80.19
71996;BME280;59862;47.732;7.346;2022-08-19T09:24:16;97967.73;;;20.87;79.99
71996;BME280;59862;47.732;7.346;2022-08-19T09:26:44;97971.11;;;21.06;80.32
71996;BME280;59862;47.732;7.346;2022-08-19T09:29:13;97975.33;;;21.21;79.76
71996;BME280;59862;47.732;7.346;2022-08-19T09:31:40;97974.94;;;21.23;78.87
71996;BME280;59862;47.732;7.346;2022-08-19T09:34:08;97972.09;;;21.26;78.77
71996;BME280;59862;47.732;7.346;2022-08-19T09:36:35;97977.83;;;21.12;78.29
71996;BME280;59862;47.732;7.346;2022-08-19T09:39:06;97978.33;;;21.03;79.72
71996;BME280;59862;47.732;7.346;2022-08-19T09:41:33;97985.48;;;20.89;79.83
71996;BME280;59862;47.732;7.346;2022-08-19T09:44:01;97984.88;;;20.89;80.05
71996;BME280;59862;47.732;7.346;2022-08-19T09:46:29;97987.52;;;21.04;80.25
71996;BME280;59862;47.732;7.346;2022-08-19T09:48:59;97991.21;;;21.12;80.18
71996;BME280;59862;47.732;7.346;2022-08-19T09:51:27;97993.22;;;21.31;80.29
71996;BME280;59862;47.732;7.346;2022-08-19T09:54:02;97993.59;;;21.14;79.66
71996;BME280;59862;47.732;7.346;2022-08-19T09:56:26;97995.22;;;21.11;79.55
71996;BME280;59862;47.732;7.346;2022-08-19T09:58:53;97997.22;;;21.11;79.56
71996;BME280;59862;47.732;7.346;2022-08-19T10:01:23;97992.50;;;21.04;78.98
71996;BME280;59862;47.732;7.346;2022-08-19T10:03:53;97992.62;;;20.94;79.78
71996;BME280;59862;47.732;7.346;2022-08-19T10:06:23;97993.45;;;20.68;79.35
71996;BME280;59862;47.732;7.346;2022-08-19T10:08:52;98002.34;;;20.56;80.06
71996;BME280;59862;47.732;7.346;2022-08-19T10:11:20;97992.63;;;20.49;81.24
71996;BME280;59862;47.732;7.346;2022-08-19T10:13:48;97996.51;;;20.36;81.11
71996;BME280;59862;47.732;7.346;2022-08-19T10:16:18;97997.11;;;20.06;82.52
71996;BME280;59862;47.732;7.346;2022-08-19T10:18:48;97998.27;;;19.83;83.56
71996;BME280;59862;47.732;7.346;2022-08-19T10:21:20;98002.32;;;19.71;84.59
71996;BME280;59862;47.732;7.346;2022-08-19T10:23:49;98002.94;;;19.67;85.44
71996;BME280;59862;47.732;7.346;2022-08-19T10:26:20;97998.07;;;19.82;85.22
71996;BME280;59862;47.732;7.346;2022-08-19T10:28:49;97995.52;;;20.05;84.71
71996;BME280;59862;47.732;7.346;2022-08-19T10:31:20;97996.09;;;20.38;84.16
71996;BME280;59862;47.732;7.346;2022-08-19T10:33:49;97988.20;;;20.74;82.92
71996;BME280;59862;47.732;7.346;2022-08-19T10:36:21;97993.41;;;21.13;81.51
71996;BME280;59862;47.732;7.346;2022-08-19T10:38:52;97994.11;;;21.39;79.90
71996;BME280;59862;47.732;7.346;2022-08-19T10:41:22;98007.58;;;21.51;78.89
71996;BME280;59862;47.732;7.346;2022-08-19T10:43:54;97999.59;;;21.65;78.61
71996;BME280;59862;47.732;7.346;2022-08-19T10:46:24;98003.02;;;21.92;79.54
71996;BME280;59862;47.732;7.346;2022-08-19T10:48:53;97999.91;;;21.86;76.11
71996;BME280;59862;47.732;7.346;2022-08-19T10:51:21;98000.48;;;21.74;77.38
71996;BME280;59862;47.732;7.346;2022-08-19T10:54:07;97998.61;;;21.79;77.72
71996;BME280;59862;47.732;7.346;2022-08-19T10:56:35;97997.30;;;21.72;78.29
71996;BME280;59862;47.732;7.346;2022-08-19T10:59:23;97991.66;;;21.75;77.06
71996;BME280;59862;47.732;7.346;2022-08-19T11:01:48;97990.31;;;21.72;77.67
71996;BME280;59862;47.732;7.346;2022-08-19T11:04:17;97984.39;;;21.66;77.78
71996;BME280;59862;47.732;7.346;2022-08-19T11:06:46;97988.34;;;21.84;77.99
71996;BME280;59862;47.732;7.346;2022-08-19T11:09:21;97984.62;;;21.64;78.08
71996;BME280;59862;47.732;7.346;2022-08-19T11:11:50;97985.78;;;21.66;76.33
71996;BME280;59862;47.732;7.346;2022-08-19T11:14:20;97982.67;;;21.61;76.00
71996;BME280;59862;47.732;7.346;2022-08-19T11:16:51;97984.13;;;21.84;76.44
71996;BME280;59862;47.732;7.346;2022-08-19T11:19:20;97987.20;;;21.93;76.23
71996;BME280;59862;47.732;7.346;2022-08-19T11:21:51;97984.39;;;22.08;75.68
71996;BME280;59862;47.732;7.346;2022-08-19T11:24:23;97979.88;;;22.53;75.79
71996;BME280;59862;47.732;7.346;2022-08-19T11:26:53;97984.89;;;22.77;72.27
71996;BME280;59862;47.732;7.346;2022-08-19T11:29:22;97983.77;;;23.06;70.90
71996;BME280;59862;47.732;7.346;2022-08-19T11:31:51;97978.43;;;23.99;68.79
71996;BME280;59862;47.732;7.346;2022-08-19T11:34:22;97974.39;;;25.14;66.32
71996;BME280;59862;47.732;7.346;2022-08-19T11:36:51;97972.48;;;26.07;63.48
71996;BME280;59862;47.732;7.346;2022-08-19T11:39:21;97976.34;;;25.92;60.36
71996;BME280;59862;47.732;7.346;2022-08-19T11:41:49;97976.97;;;26.55;60.24
71996;BME280;59862;47.732;7.346;2022-08-19T11:44:17;97974.06;;;26.76;57.69
71996;BME280;59862;47.732;7.346;2022-08-19T11:46:45;97978.83;;;26.53;58.89
71996;BME280;59862;47.732;7.346;2022-08-19T11:49:15;97973.05;;;26.14;56.91
71996;BME280;59862;47.732;7.346;2022-08-19T11:51:45;97976.33;;;26.98;56.21
71996;BME280;59862;47.732;7.346;2022-08-19T11:54:14;97971.84;;;28.24;51.92
71996;BME280;59862;47.732;7.346;2022-08-19T11:56:43;97970.16;;;29.17;51.30
71996;BME280;59862;47.732;7.346;2022-08-19T11:59:12;97978.17;;;29.23;47.28
71996;BME280;59862;47.732;7.346;2022-08-19T12:01:39;97976.69;;;27.61;52.94
71996;BME280;59862;47.732;7.346;2022-08-19T12:04:08;97979.66;;;27.01;53.35
71996;BME280;59862;47.732;7.346;2022-08-19T12:06:38;97971.11;;;25.99;55.88
71996;BME280;59862;47.732;7.346;2022-08-19T12:09:08;97976.06;;;25.11;58.08
71996;BME280;59862;47.732;7.346;2022-08-19T12:11:37;97976.48;;;24.48;60.75
71996;BME280;59862;47.732;7.346;2022-08-19T12:14:11;97977.99;;;24.00;63.46
71996;BME280;59862;47.732;7.346;2022-08-19T12:16:40;97977.17;;;23.84;64.47
71996;BME280;59862;47.732;7.346;2022-08-19T12:19:08;97972.83;;;23.63;65.38
71996;BME280;59862;47.732;7.346;2022-08-19T12:21:36;97977.22;;;23.44;65.21
71996;BME280;59862;47.732;7.346;2022-08-19T12:24:05;97978.78;;;23.25;66.31
71996;BME280;59862;47.732;7.346;2022-08-19T12:26:34;97978.16;;;23.06;66.95
71996;BME280;59862;47.732;7.346;2022-08-19T12:29:03;97978.41;;;23.03;67.54
71996;BME280;59862;47.732;7.346;2022-08-19T12:31:31;97980.68;;;23.00;69.13
71996;BME280;59862;47.732;7.346;2022-08-19T12:33:58;97972.38;;;23.05;68.34
71996;BME280;59862;47.732;7.346;2022-08-19T12:36:28;97976.73;;;23.18;68.49
71996;BME280;59862;47.732;7.346;2022-08-19T12:38:57;97977.95;;;23.36;68.68
71996;BME280;59862;47.732;7.346;2022-08-19T12:41:26;97983.23;;;23.23;67.86
71996;BME280;59862;47.732;7.346;2022-08-19T12:43:53;97983.38;;;22.96;68.75
71996;BME280;59862;47.732;7.346;2022-08-19T12:46:21;97971.30;;;22.99;68.50
71996;BME280;59862;47.732;7.346;2022-08-19T12:48:49;97967.02;;;23.02;69.44
71996;BME280;59862;47.732;7.346;2022-08-19T12:51:19;97964.00;;;23.13;68.52
71996;BME280;59862;47.732;7.346;2022-08-19T12:53:47;97972.05;;;23.11;67.59
71996;BME280;59862;47.732;7.346;2022-08-19T12:56:16;97963.85;;;23.20;68.26
71996;BME280;59862;47.732;7.346;2022-08-19T12:58:45;97969.78;;;22.94;68.77
71996;BME280;59862;47.732;7.346;2022-08-19T13:01:15;97963.34;;;23.05;68.69
71996;BME280;59862;47.732;7.346;2022-08-19T13:03:44;97961.44;;;23.30;68.24
71996;BME280;59862;47.732;7.346;2022-08-19T13:06:13;97962.31;;;23.67;67.32
71996;BME280;59862;47.732;7.346;2022-08-19T13:08:41;97958.02;;;24.63;63.40
71996;BME280;59862;47.732;7.346;2022-08-19T13:11:11;97959.14;;;25.48;60.39
71996;BME280;59862;47.732;7.346;2022-08-19T13:13:41;97968.86;;;25.10;60.47
71996;BME280;59862;47.732;7.346;2022-08-19T13:16:10;97969.98;;;24.51;62.24
71996;BME280;59862;47.732;7.346;2022-08-19T13:18:40;97963.66;;;23.79;64.83
71996;BME280;59862;47.732;7.346;2022-08-19T13:21:09;97960.93;;;23.35;65.58
71996;BME280;59862;47.732;7.346;2022-08-19T13:23:39;97964.98;;;22.83;67.79